Capitol Logistics 1145


EBLG
Liège Airport
Liege, BE
LIRF
Leonardo da Vinci International Airport
Rome, IT

Activity Log

Date Flight Route Aircraft Duration
11/09/2019 CPX745 Not Available B738 2h 14m

Route Details

Aircraft Information
Primary: Boeing 737-800BCF
Backup: Not Available
Route Data
Distance: 601nm
Sched. Duration: 1h 44m
Avg. Duration: 2h 14m (+70m)
Times Flown: 1
Recm'd Route: Not Available
Planned Altitude: 35,000ft
Origin Wx: EBLG 200320Z 17012KT CAVOK 11/05 Q1009 NOSIG
Dest. Wx: LIRF 200320Z 09002KT CAVOK 09/09 Q1024 NOSIG
Notes:

Financial History
Total Freight: 26,400lbs
Average Load: 26,400lbs/flt
Fuel Used: 9,100lbs
Avg. Fuel Used: 9,100lbs/flt
Fuel Expense: $10,101
Avg. Fuel Expense: $10,101
Avg. Fuel Cost: $1.11/lbs
Total Gross Income: $52,800
Pilot Pay: $239
Total Expenses: $5,754
Total Revenue: $36,362
Average Revenue: $52,800.00